Time;durP1;ratioP1;P1;durP2;ratioP2;P2;SDS_P1;SDS_P2;PMS_P1;PMS_P2;Temp;Humidity;BMP_temperature;BMP_pressure;BME280_temperature;BME280_humidity;BME280_pressure;Samples;Min_cycle;Max_cycle;Signal;HPM_P1;HPM_P2
2023/07/29 00:02:14;;;;;;;0.00;0.00;;;;;;;;;;5093798;28;20361;-80
2023/07/29 00:04:40;;;;;;;0.00;0.00;;;;;;;;;;5093178;28;20044;-80
2023/07/29 00:07:06;;;;;;;0.00;0.00;;;;;;;;;;5094839;28;20040;-80
2023/07/29 00:09:32;;;;;;;0.00;0.00;;;;;;;;;;5094480;28;20043;-80
2023/07/29 00:11:58;;;;;;;0.00;0.00;;;;;;;;;;5094481;28;20044;-80
2023/07/29 00:14:24;;;;;;;0.00;0.00;;;;;;;;;;5094130;28;20066;-85
2023/07/29 00:16:50;;;;;;;0.00;0.00;;;;;;;;;;5093174;28;20044;-80
2023/07/29 00:19:16;;;;;;;0.00;0.00;;;;;;;;;;5092910;28;20113;-80
2023/07/29 00:21:42;;;;;;;0.00;0.00;;;;;;;;;;5094371;28;20040;-80
2023/07/29 00:24:08;;;;;;;0.00;0.00;;;;;;;;;;5075869;28;20047;-80
2023/07/29 00:26:35;;;;;;;0.00;0.00;;;;;;;;;;5094367;28;20132;-80
2023/07/29 00:29:01;;;;;;;0.00;0.00;;;;;;;;;;5093055;28;20051;-80
2023/07/29 00:31:27;;;;;;;0.00;0.00;;;;;;;;;;5093917;28;20540;-80
2023/07/29 00:33:53;;;;;;;0.00;0.00;;;;;;;;;;5094249;28;20043;-80
2023/07/29 00:36:19;;;;;;;0.00;0.00;;;;;;;;;;5094054;28;20511;-80
2023/07/29 00:38:45;;;;;;;0.00;0.00;;;;;;;;;;5094177;28;20047;-80
2023/07/29 00:41:14;;;;;;;0.00;0.00;;;;;;;;;;5092444;28;20044;-80
2023/07/29 00:43:40;;;;;;;0.00;0.00;;;;;;;;;;5093849;28;20036;-80
2023/07/29 00:46:06;;;;;;;0.00;0.00;;;;;;;;;;5092362;28;20045;-80
2023/07/29 00:48:32;;;;;;;0.00;0.00;;;;;;;;;;5092926;28;20098;-80
2023/07/29 00:50:58;;;;;;;0.00;0.00;;;;;;;;;;5075403;28;20127;-80
2023/07/29 00:53:24;;;;;;;0.00;0.00;;;;;;;;;;5093854;28;20083;-80
2023/07/29 00:55:50;;;;;;;0.00;0.00;;;;;;;;;;5093601;28;20028;-80
2023/07/29 00:58:16;;;;;;;0.00;0.00;;;;;;;;;;5092491;28;20036;-80
2023/07/29 01:00:42;;;;;;;0.00;0.00;;;;;;;;;;5075275;28;20530;-80
2023/07/29 01:03:08;;;;;;;0.00;0.00;;;;;;;;;;5093701;28;20048;-80
2023/07/29 01:05:55;;;;;;;0.00;0.00;;;;;;;;;;5075274;28;20055;-80
2023/07/29 01:08:26;;;;;;;0.00;0.00;;;;;;;;;;5092374;28;20123;-80
2023/07/29 01:10:52;;;;;;;0.00;0.00;;;;;;;;;;5093474;28;20128;-80
2023/07/29 01:13:21;;;;;;;0.00;0.00;;;;;;;;;;5092218;28;20079;-80
2023/07/29 01:15:56;;;;;;;0.00;0.00;;;;;;;;;;5093259;28;20047;-80
2023/07/29 01:18:33;;;;;;;0.00;0.00;;;;;;;;;;5093444;28;20032;-80
2023/07/29 01:20:59;;;;;;;0.00;0.00;;;;;;;;;;5093101;28;20126;-80
2023/07/29 01:23:32;;;;;;;0.00;0.00;;;;;;;;;;5093271;28;20036;-80
2023/07/29 01:25:58;;;;;;;0.00;0.00;;;;;;;;;;5093019;28;20475;-80
2023/07/29 01:28:25;;;;;;;0.00;0.00;;;;;;;;;;5092275;28;20043;-80
2023/07/29 01:30:53;;;;;;;0.00;0.00;;;;;;;;;;5091627;28;20101;-80
2023/07/29 01:33:26;;;;;;;0.00;0.00;;;;;;;;;;5093326;28;20040;-80
2023/07/29 01:35:55;;;;;;;0.00;0.00;;;;;;;;;;5093136;28;20039;-80
2023/07/29 01:38:25;;;;;;;0.00;0.00;;;;;;;;;;5093291;28;20040;-80
2023/07/29 01:40:52;;;;;;;0.45;0.20;;;;;;;;;;5093097;28;20036;-80
2023/07/29 01:43:23;;;;;;;0.00;0.00;;;;;;;;;;5093174;28;20040;-81
2023/07/29 01:45:49;;;;;;;0.00;0.00;;;;;;;;;;5091681;28;20056;-80
2023/07/29 01:48:15;;;;;;;0.00;0.00;;;;;;;;;;5091797;28;20044;-80
2023/07/29 01:50:41;;;;;;;0.00;0.00;;;;;;;;;;5091414;28;20396;-81
2023/07/29 01:53:07;;;;;;;0.00;0.00;;;;;;;;;;5093333;28;20046;-80
2023/07/29 01:55:33;;;;;;;0.00;0.00;;;;;;;;;;5092955;28;20348;-80
2023/07/29 01:57:59;;;;;;;0.00;0.00;;;;;;;;;;5093047;28;20039;-80
2023/07/29 02:00:25;;;;;;;0.00;0.00;;;;;;;;;;5091307;28;20052;-80
2023/07/29 02:02:51;;;;;;;0.00;0.00;;;;;;;;;;5092816;28;20071;-80
2023/07/29 02:05:17;;;;;;;0.00;0.00;;;;;;;;;;5092919;28;20071;-80
2023/07/29 02:07:43;;;;;;;0.00;0.00;;;;;;;;;;5093105;28;20475;-80
2023/07/29 02:10:09;;;;;;;0.00;0.00;;;;;;;;;;5092848;28;20040;-80
2023/07/29 02:12:35;;;;;;;0.00;0.00;;;;;;;;;;5091478;28;20047;-80
2023/07/29 02:15:01;;;;;;;0.00;0.00;;;;;;;;;;5092856;28;20363;-80
2023/07/29 02:17:27;;;;;;;0.00;0.00;;;;;;;;;;5091346;28;20247;-80
2023/07/29 02:19:53;;;;;;;0.00;0.00;;;;;;;;;;5092851;28;20047;-80
2023/07/29 02:22:19;;;;;;;0.00;0.00;;;;;;;;;;5091322;28;20048;-80
2023/07/29 02:24:45;;;;;;;0.00;0.00;;;;;;;;;;5091472;28;20228;-80
2023/07/29 02:27:12;;;;;;;0.00;0.00;;;;;;;;;;5096505;28;20036;-79
2023/07/29 02:29:38;;;;;;;0.00;0.00;;;;;;;;;;5096585;28;20124;-80
2023/07/29 02:32:05;;;;;;;0.00;0.00;;;;;;;;;;5095010;28;20071;-81
2023/07/29 02:34:31;;;;;;;0.00;0.00;;;;;;;;;;5078156;28;20039;-80
2023/07/29 02:36:57;;;;;;;0.00;0.00;;;;;;;;;;5096414;28;20426;-80
2023/07/29 02:39:23;;;;;;;0.00;0.00;;;;;;;;;;5095240;28;20043;-80
2023/07/29 02:41:49;;;;;;;0.00;0.00;;;;;;;;;;5094782;28;20081;-80
2023/07/29 02:44:16;;;;;;;0.00;0.00;;;;;;;;;;5096503;28;20072;-80
2023/07/29 02:46:42;;;;;;;0.00;0.00;;;;;;;;;;5095825;28;20143;-80
2023/07/29 02:49:08;;;;;;;0.00;0.00;;;;;;;;;;5096374;28;20071;-81
2023/07/29 02:51:34;;;;;;;0.00;0.00;;;;;;;;;;5095990;28;20419;-80
2023/07/29 02:54:00;;;;;;;0.00;0.00;;;;;;;;;;5096156;28;20044;-81
2023/07/29 02:56:30;;;;;;;0.00;0.00;;;;;;;;;;5095858;28;20044;-79
2023/07/29 02:58:56;;;;;;;0.00;0.00;;;;;;;;;;5095948;28;20050;-80
2023/07/29 03:01:25;;;;;;;0.00;0.00;;;;;;;;;;5095880;28;20044;-80
2023/07/29 03:03:51;;;;;;;0.00;0.00;;;;;;;;;;5095984;28;20044;-80
2023/07/29 03:06:17;;;;;;;0.00;0.00;;;;;;;;;;5095748;28;20171;-80
2023/07/29 03:08:43;;;;;;;0.00;0.00;;;;;;;;;;5094731;28;20044;-80
2023/07/29 03:11:18;;;;;;;0.00;0.00;;;;;;;;;;5094176;28;20450;-80
2023/07/29 03:13:44;;;;;;;0.00;0.00;;;;;;;;;;5094698;28;20044;-80
2023/07/29 03:16:14;;;;;;;0.00;0.00;;;;;;;;;;5095594;28;20508;-80
2023/07/29 03:18:40;;;;;;;0.00;0.00;;;;;;;;;;5095790;28;20123;-80
2023/07/29 03:21:07;;;;;;;0.00;0.00;;;;;;;;;;5095437;28;20040;-80
2023/07/29 03:23:33;;;;;;;0.00;0.00;;;;;;;;;;5094637;28;20032;-80
2023/07/29 03:26:00;;;;;;;0.00;0.00;;;;;;;;;;5095361;28;20040;-80
2023/07/29 03:28:30;;;;;;;0.00;0.00;;;;;;;;;;5094149;28;20051;-80
2023/07/29 03:30:56;;;;;;;0.00;0.00;;;;;;;;;;5095492;28;20108;-80
2023/07/29 03:33:22;;;;;;;0.00;0.00;;;;;;;;;;5094121;28;20063;-80
2023/07/29 03:35:49;;;;;;;0.00;0.00;;;;;;;;;;5094016;28;20101;-80
2023/07/29 03:38:18;;;;;;;0.00;0.00;;;;;;;;;;5095132;28;20044;-80
2023/07/29 03:40:44;;;;;;;0.10;0.10;;;;;;;;;;5095210;28;20044;-80
2023/07/29 03:43:11;;;;;;;0.00;0.00;;;;;;;;;;5095268;28;20036;-80
2023/07/29 03:45:38;;;;;;;0.00;0.00;;;;;;;;;;5095092;28;20048;-80
2023/07/29 03:48:05;;;;;;;0.00;0.00;;;;;;;;;;5093989;28;20044;-80
2023/07/29 03:50:33;;;;;;;0.00;0.00;;;;;;;;;;5094811;28;20084;-80
2023/07/29 03:52:59;;;;;;;0.00;0.00;;;;;;;;;;5094694;28;20050;-80
2023/07/29 03:55:25;;;;;;;0.00;0.00;;;;;;;;;;5094894;28;20115;-80
2023/07/29 03:57:51;;;;;;;0.00;0.00;;;;;;;;;;5093388;28;20050;-80
2023/07/29 04:00:17;;;;;;;0.00;0.00;;;;;;;;;;5094798;28;20119;-80
2023/07/29 04:02:45;;;;;;;0.00;0.00;;;;;;;;;;5094627;28;20400;-80
2023/07/29 04:05:11;;;;;;;0.00;0.00;;;;;;;;;;5093594;28;20094;-79
2023/07/29 04:07:37;;;;;;;0.00;0.00;;;;;;;;;;5093267;28;20058;-80
2023/07/29 04:10:04;;;;;;;0.00;0.00;;;;;;;;;;5094828;28;20040;-80
2023/07/29 04:12:30;;;;;;;0.00;0.00;;;;;;;;;;5094603;28;20051;-80
2023/07/29 04:14:56;;;;;;;0.00;0.00;;;;;;;;;;5094649;28;20046;-80
2023/07/29 04:17:22;;;;;;;0.00;0.00;;;;;;;;;;5093030;28;20048;-80
2023/07/29 04:19:48;;;;;;;0.00;0.00;;;;;;;;;;5094363;28;20476;-80
2023/07/29 04:22:14;;;;;;;0.00;0.00;;;;;;;;;;5092866;28;20036;-80
2023/07/29 04:24:40;;;;;;;0.00;0.00;;;;;;;;;;5094469;28;20063;-80
2023/07/29 04:27:06;;;;;;;0.00;0.00;;;;;;;;;;5094263;28;20384;-80
2023/07/29 04:29:32;;;;;;;0.00;0.00;;;;;;;;;;5094336;28;20043;-80
2023/07/29 04:31:58;;;;;;;0.00;0.00;;;;;;;;;;5092632;28;20047;-80
2023/07/29 04:34:25;;;;;;;0.00;0.00;;;;;;;;;;5092950;28;20047;-80
2023/07/29 04:36:51;;;;;;;0.00;0.00;;;;;;;;;;5092891;28;20431;-80
2023/07/29 04:39:17;;;;;;;0.00;0.00;;;;;;;;;;5094396;28;20040;-80
2023/07/29 04:41:44;;;;;;;0.00;0.00;;;;;;;;;;5075606;28;20044;-79
2023/07/29 04:44:10;;;;;;;0.00;0.00;;;;;;;;;;5094170;28;20055;-80
2023/07/29 04:46:36;;;;;;;0.00;0.00;;;;;;;;;;5092515;28;20484;-80
2023/07/29 04:49:03;;;;;;;0.00;0.00;;;;;;;;;;5091729;28;20044;-80
2023/07/29 04:51:29;;;;;;;0.00;0.00;;;;;;;;;;5075811;28;20088;-80
2023/07/29 04:53:55;;;;;;;0.00;0.00;;;;;;;;;;5092664;28;20051;-80
2023/07/29 04:56:21;;;;;;;0.00;0.00;;;;;;;;;;5093979;28;20040;-80
2023/07/29 04:58:47;;;;;;;0.00;0.00;;;;;;;;;;5092632;28;20060;-80
2023/07/29 05:01:13;;;;;;;0.00;0.00;;;;;;;;;;5093494;28;20049;-80
2023/07/29 05:03:39;;;;;;;0.00;0.00;;;;;;;;;;5093635;28;20514;-80
2023/07/29 05:06:05;;;;;;;0.00;0.00;;;;;;;;;;5093374;28;20089;-80
2023/07/29 05:08:31;;;;;;;0.00;0.00;;;;;;;;;;5075486;28;20078;-79
2023/07/29 05:10:57;;;;;;;0.00;0.00;;;;;;;;;;5092029;28;20071;-80
2023/07/29 05:13:24;;;;;;;0.00;0.00;;;;;;;;;;5092086;28;20044;-80
2023/07/29 05:15:50;;;;;;;0.00;0.00;;;;;;;;;;5093530;28;20044;-80
2023/07/29 05:18:17;;;;;;;0.00;0.00;;;;;;;;;;5092227;28;20479;-80
2023/07/29 05:20:43;;;;;;;0.00;0.00;;;;;;;;;;5091761;28;20119;-80
2023/07/29 05:23:09;;;;;;;0.00;0.00;;;;;;;;;;5092486;28;20467;-80
2023/07/29 05:25:35;;;;;;;0.00;0.00;;;;;;;;;;5093514;28;20039;-80
2023/07/29 05:28:01;;;;;;;0.00;0.00;;;;;;;;;;5093265;28;20047;-80
2023/07/29 05:30:30;;;;;;;0.00;0.00;;;;;;;;;;5093311;28;20036;-80
2023/07/29 05:32:57;;;;;;;0.00;0.00;;;;;;;;;;5074987;28;20079;-80
2023/07/29 05:35:23;;;;;;;0.00;0.00;;;;;;;;;;5093105;28;20044;-80
2023/07/29 05:37:49;;;;;;;0.00;0.00;;;;;;;;;;5092983;28;20044;-80
2023/07/29 05:40:15;;;;;;;0.00;0.00;;;;;;;;;;5093085;28;20083;-80
2023/07/29 05:42:41;;;;;;;0.00;0.00;;;;;;;;;;5091656;28;20093;-81
2023/07/29 05:45:07;;;;;;;0.00;0.00;;;;;;;;;;5074798;28;20056;-83
2023/07/29 05:47:33;;;;;;;0.00;0.00;;;;;;;;;;5091739;28;20079;-81
2023/07/29 05:50:02;;;;;;;0.00;0.00;;;;;;;;;;5092971;28;20090;-81
2023/07/29 05:52:28;;;;;;;0.00;0.00;;;;;;;;;;5092961;28;20131;-81
2023/07/29 05:54:54;;;;;;;0.00;0.00;;;;;;;;;;5093059;28;20075;-81
2023/07/29 05:57:20;;;;;;;0.22;0.00;;;;;;;;;;5093029;28;20044;-81
2023/07/29 05:59:46;;;;;;;0.00;0.00;;;;;;;;;;5094471;28;20114;-81
2023/07/29 06:02:12;;;;;;;0.00;0.00;;;;;;;;;;5095979;28;20036;-81
2023/07/29 06:04:38;;;;;;;0.00;0.00;;;;;;;;;;5096748;28;20028;-82
2023/07/29 06:07:06;;;;;;;0.00;0.00;;;;;;;;;;5096242;28;20403;-81
2023/07/29 06:09:32;;;;;;;0.00;0.00;;;;;;;;;;5096724;28;20039;-81
2023/07/29 06:11:58;;;;;;;0.00;0.00;;;;;;;;;;5096867;28;20038;-81
2023/07/29 06:14:24;;;;;;;0.00;0.00;;;;;;;;;;5095502;28;20040;-81
2023/07/29 06:16:50;;;;;;;0.00;0.00;;;;;;;;;;5095599;28;20036;-81
2023/07/29 06:19:16;;;;;;;0.00;0.00;;;;;;;;;;5095235;28;20036;-81
2023/07/29 06:21:42;;;;;;;0.00;0.00;;;;;;;;;;5095475;28;20036;-81
2023/07/29 06:24:08;;;;;;;0.00;0.00;;;;;;;;;;5095358;28;20047;-81
2023/07/29 06:26:34;;;;;;;0.00;0.00;;;;;;;;;;5095630;28;20093;-84
2023/07/29 06:29:00;;;;;;;0.00;0.00;;;;;;;;;;5096356;28;20483;-81
2023/07/29 06:31:26;;;;;;;0.00;0.00;;;;;;;;;;5095154;28;20048;-81
2023/07/29 06:33:52;;;;;;;0.00;0.00;;;;;;;;;;5096615;28;20040;-81
2023/07/29 06:36:18;;;;;;;0.00;0.00;;;;;;;;;;5095166;28;20172;-82
2023/07/29 06:38:44;;;;;;;0.00;0.00;;;;;;;;;;5096344;28;20377;-82
2023/07/29 06:41:10;;;;;;;0.00;0.00;;;;;;;;;;5095245;28;20041;-81
2023/07/29 06:43:36;;;;;;;0.00;0.00;;;;;;;;;;5094956;28;20480;-82
2023/07/29 06:46:02;;;;;;;0.00;0.00;;;;;;;;;;5094843;28;20059;-82
2023/07/29 08:13:17;;;;;;;;;;;;;;;;;;5111459;27;20414;-79
2023/07/29 08:15:43;;;;;;;;;;;;;;;;;;5110519;28;19916;-79
2023/07/29 08:18:09;;;;;;;;;;;;;;;;;;5111143;28;19916;-79
2023/07/29 08:20:35;;;;;;;;;;;;;;;;;;5110411;28;19920;-79
2023/07/29 08:23:01;;;;;;;0.10;0.00;;;;;;;;;;5110342;28;19923;-79
2023/07/29 08:25:29;;;;;;;0.25;0.13;;;;;;;;;;5110291;28;20115;-80
2023/07/29 08:27:55;;;;;;;0.08;0.08;;;;;;;;;;5110075;28;20123;-78
2023/07/29 08:30:21;;;;;;;0.38;0.10;;;;;;;;;;5109621;28;20067;-82
2023/07/29 08:32:47;;;;;;;0.00;0.00;;;;;;;;;;5108552;28;20040;-78
2023/07/29 08:35:14;;;;;;;0.13;0.10;;;;;;;;;;5108576;28;20044;-80
2023/07/29 08:37:40;;;;;;;0.00;0.00;;;;;;;;;;5108757;28;20143;-80
2023/07/29 08:40:06;;;;;;;0.10;0.10;;;;;;;;;;5109732;28;20543;-80
2023/07/29 08:42:34;;;;;;;0.00;0.00;;;;;;;;;;5108567;28;20062;-79
2023/07/29 08:45:08;;;;;;;0.00;0.00;;;;;;;;;;5108350;28;20562;-79
2023/07/29 08:47:34;;;;;;;0.00;0.00;;;;;;;;;;5108667;28;20079;-79
2023/07/29 08:50:01;;;;;;;0.00;0.00;;;;;;;;;;5109548;28;20411;-79
2023/07/29 08:52:28;;;;;;;0.00;0.00;;;;;;;;;;5109642;28;20498;-79
2023/07/29 08:54:54;;;;;;;0.00;0.00;;;;;;;;;;5108700;28;20122;-79
2023/07/29 08:57:20;;;;;;;0.00;0.00;;;;;;;;;;5110166;28;20395;-80
2023/07/29 08:59:46;;;;;;;0.00;0.00;;;;;;;;;;5109713;28;20116;-79
2023/07/29 09:02:12;;;;;;;0.00;0.00;;;;;;;;;;5108215;28;20040;-80
2023/07/29 09:04:39;;;;;;;0.00;0.00;;;;;;;;;;5109378;28;20070;-80
2023/07/29 09:07:06;;;;;;;0.00;0.00;;;;;;;;;;5107957;28;20048;-80
2023/07/29 09:09:32;;;;;;;0.00;0.00;;;;;;;;;;5107749;28;20048;-81
2023/07/29 09:11:58;;;;;;;0.00;0.00;;;;;;;;;;5107562;28;20059;-79
2023/07/29 09:14:25;;;;;;;0.00;0.00;;;;;;;;;;5107912;28;20048;-79
2023/07/29 09:16:51;;;;;;;0.00;0.00;;;;;;;;;;5107668;28;20343;-79
2023/07/29 09:19:17;;;;;;;0.00;0.00;;;;;;;;;;5107853;28;20039;-79
2023/07/29 09:21:46;;;;;;;0.00;0.00;;;;;;;;;;5107560;28;20035;-79
2023/07/29 09:24:16;;;;;;;0.00;0.00;;;;;;;;;;5098178;28;20092;-80
2023/07/29 09:26:49;;;;;;;0.00;0.00;;;;;;;;;;5095175;28;20127;-80
2023/07/29 09:29:15;;;;;;;0.00;0.00;;;;;;;;;;5095591;28;20044;-79
2023/07/29 09:31:41;;;;;;;0.00;0.00;;;;;;;;;;5095112;28;20040;-80
2023/07/29 09:34:08;;;;;;;0.00;0.00;;;;;;;;;;5093895;28;20047;-79
2023/07/29 09:36:35;;;;;;;0.00;0.00;;;;;;;;;;5095845;28;20120;-79
2023/07/29 09:39:01;;;;;;;0.00;0.00;;;;;;;;;;5077390;28;20044;-79
2023/07/29 09:41:28;;;;;;;0.00;0.00;;;;;;;;;;5095302;28;20128;-79
2023/07/29 09:43:58;;;;;;;0.00;0.00;;;;;;;;;;5093846;28;20540;-80
2023/07/29 09:46:26;;;;;;;0.00;0.00;;;;;;;;;;5093696;28;20475;-79
2023/07/29 09:48:54;;;;;;;0.00;0.00;;;;;;;;;;5093956;28;20055;-79
2023/07/29 09:51:20;;;;;;;0.00;0.00;;;;;;;;;;5094622;28;20046;-82
2023/07/29 09:53:47;;;;;;;0.00;0.00;;;;;;;;;;5093855;28;20032;-80
2023/07/29 09:56:14;;;;;;;0.00;0.00;;;;;;;;;;5093600;28;20050;-79
2023/07/29 09:58:40;;;;;;;0.00;0.00;;;;;;;;;;5076611;28;20039;-80
2023/07/29 10:01:06;;;;;;;0.00;0.00;;;;;;;;;;5094479;28;20036;-80
2023/07/29 10:03:32;;;;;;;0.00;0.00;;;;;;;;;;5093704;28;20478;-80
2023/07/29 10:06:01;;;;;;;0.00;0.00;;;;;;;;;;5094351;28;20036;-80
2023/07/29 10:08:29;;;;;;;0.00;0.00;;;;;;;;;;5094811;28;20131;-81
2023/07/29 10:10:55;;;;;;;0.00;0.00;;;;;;;;;;5094201;28;20039;-80
2023/07/29 10:13:21;;;;;;;0.00;0.00;;;;;;;;;;5094714;28;20145;-80
2023/07/29 10:15:47;;;;;;;0.00;0.00;;;;;;;;;;5092924;28;20115;-79
2023/07/29 10:18:13;;;;;;;0.00;0.00;;;;;;;;;;5094570;28;20064;-79
2023/07/29 10:20:40;;;;;;;0.00;0.00;;;;;;;;;;5092924;28;20123;-79
2023/07/29 10:23:07;;;;;;;0.00;0.00;;;;;;;;;;5093160;28;20044;-79
2023/07/29 10:25:39;;;;;;;0.00;0.00;;;;;;;;;;5094139;28;20126;-80
2023/07/29 10:28:06;;;;;;;0.00;0.00;;;;;;;;;;5092917;28;20143;-79
2023/07/29 10:30:33;;;;;;;0.00;0.00;;;;;;;;;;5092489;28;20044;-79
2023/07/29 10:32:59;;;;;;;0.00;0.00;;;;;;;;;;5093870;28;20387;-79
2023/07/29 10:35:25;;;;;;;0.00;0.00;;;;;;;;;;5092843;28;20097;-79
2023/07/29 10:37:53;;;;;;;0.00;0.00;;;;;;;;;;5094097;28;20032;-79
2023/07/29 10:40:19;;;;;;;0.00;0.00;;;;;;;;;;5093987;28;20183;-80
2023/07/29 10:43:02;;;;;;;0.00;0.00;;;;;;;;;;5092289;28;20040;-80
2023/07/29 10:45:36;;;;;;;0.00;0.00;;;;;;;;;;5092307;28;20052;-80
2023/07/29 10:48:05;;;;;;;0.00;0.00;;;;;;;;;;5092832;28;20102;-80
2023/07/29 10:50:31;;;;;;;0.00;0.00;;;;;;;;;;5092949;28;20517;-79
2023/07/29 10:52:57;;;;;;;0.00;0.00;;;;;;;;;;5092269;28;20123;-79
2023/07/29 10:55:25;;;;;;;0.00;0.00;;;;;;;;;;5093686;28;20036;-80
2023/07/29 10:57:52;;;;;;;0.00;0.00;;;;;;;;;;5093216;28;20032;-79
2023/07/29 11:00:23;;;;;;;0.00;0.00;;;;;;;;;;5092071;28;20502;-79
2023/07/29 11:03:00;;;;;;;0.00;0.00;;;;;;;;;;5092034;28;20132;-80
2023/07/29 11:05:26;;;;;;;0.00;0.00;;;;;;;;;;5093576;28;20399;-79
2023/07/29 11:07:52;;;;;;;0.00;0.00;;;;;;;;;;5091841;28;20052;-80
2023/07/29 11:10:18;;;;;;;0.00;0.00;;;;;;;;;;5093350;28;20102;-79
2023/07/29 11:12:48;;;;;;;0.00;0.00;;;;;;;;;;5092735;28;20499;-80
2023/07/29 11:15:19;;;;;;;0.00;0.00;;;;;;;;;;5091827;28;20487;-80
2023/07/29 11:17:46;;;;;;;0.00;0.00;;;;;;;;;;5093187;28;20040;-80
2023/07/29 11:20:13;;;;;;;0.00;0.00;;;;;;;;;;5093104;28;20036;-80
2023/07/29 11:22:39;;;;;;;0.00;0.00;;;;;;;;;;5091843;28;20096;-80
2023/07/29 11:25:05;;;;;;;0.00;0.00;;;;;;;;;;5075172;28;20109;-81
2023/07/29 11:27:31;;;;;;;0.00;0.00;;;;;;;;;;5093101;28;20044;-80
2023/07/29 11:29:58;;;;;;;0.00;0.00;;;;;;;;;;5091634;28;20040;-80
2023/07/29 11:32:25;;;;;;;0.00;0.00;;;;;;;;;;5092863;28;20079;-80
2023/07/29 11:34:51;;;;;;;0.00;0.00;;;;;;;;;;5093179;28;20133;-79
2023/07/29 11:37:17;;;;;;;0.00;0.00;;;;;;;;;;5092659;28;20424;-79
2023/07/29 11:39:45;;;;;;;0.00;0.00;;;;;;;;;;5093314;28;20036;-79
2023/07/29 11:42:14;;;;;;;0.00;0.00;;;;;;;;;;5091455;28;20499;-78
2023/07/29 11:44:41;;;;;;;0.00;0.00;;;;;;;;;;5091668;28;20043;-79
2023/07/29 11:47:07;;;;;;;0.00;0.00;;;;;;;;;;5091252;28;20063;-79
2023/07/29 11:49:36;;;;;;;0.00;0.00;;;;;;;;;;5092658;28;20040;-78
2023/07/29 11:52:03;;;;;;;0.00;0.00;;;;;;;;;;5092366;28;20039;-78
2023/07/29 11:54:29;;;;;;;0.00;0.00;;;;;;;;;;5091293;28;20080;-78
2023/07/29 11:56:56;;;;;;;0.00;0.00;;;;;;;;;;5091406;28;20039;-78
2023/07/29 11:59:22;;;;;;;0.00;0.00;;;;;;;;;;5092674;28;20040;-78
2023/07/29 12:01:48;;;;;;;0.00;0.00;;;;;;;;;;5092389;28;20047;-78
2023/07/29 12:04:14;;;;;;;0.00;0.00;;;;;;;;;;5091046;28;20487;-78
2023/07/29 12:06:40;;;;;;;0.00;0.00;;;;;;;;;;5091302;28;20048;-78
2023/07/29 12:09:07;;;;;;;0.00;0.00;;;;;;;;;;5092319;28;20044;-78
2023/07/29 12:11:34;;;;;;;0.00;0.00;;;;;;;;;;5090441;28;20468;-78
2023/07/29 12:14:01;;;;;;;0.00;0.00;;;;;;;;;;5092506;28;20127;-78
2023/07/29 12:16:33;;;;;;;0.00;0.00;;;;;;;;;;5092275;28;20047;-78
2023/07/29 12:19:00;;;;;;;0.00;0.00;;;;;;;;;;5091119;28;20047;-78
2023/07/29 12:21:26;;;;;;;0.00;0.00;;;;;;;;;;5092189;28;20044;-78
2023/07/29 12:23:52;;;;;;;0.00;0.00;;;;;;;;;;5092216;28;20040;-78
2023/07/29 12:26:19;;;;;;;0.30;0.00;;;;;;;;;;5090979;28;20036;-79
2023/07/29 12:28:47;;;;;;;0.00;0.00;;;;;;;;;;5091114;28;20181;-80
2023/07/29 12:31:13;;;;;;;0.00;0.00;;;;;;;;;;5091102;28;20071;-79
2023/07/29 12:33:41;;;;;;;0.00;0.00;;;;;;;;;;5092097;28;20048;-79
2023/07/29 12:36:07;;;;;;;0.00;0.00;;;;;;;;;;5091138;28;20040;-79
2023/07/29 12:38:33;;;;;;;0.00;0.00;;;;;;;;;;5092297;28;20408;-79
2023/07/29 12:40:59;;;;;;;0.00;0.00;;;;;;;;;;5092179;28;20036;-79
2023/07/29 12:43:26;;;;;;;0.00;0.00;;;;;;;;;;5092123;28;20386;-79
2023/07/29 12:45:52;;;;;;;0.00;0.00;;;;;;;;;;5092248;28;20471;-78
2023/07/29 12:48:18;;;;;;;0.00;0.00;;;;;;;;;;5091984;28;20036;-79
2023/07/29 12:50:44;;;;;;;0.00;0.00;;;;;;;;;;5092010;28;20042;-79
2023/07/29 12:53:10;;;;;;;0.00;0.00;;;;;;;;;;5090618;28;20115;-79
2023/07/29 12:55:36;;;;;;;0.00;0.00;;;;;;;;;;5091124;28;20036;-79
2023/07/29 12:58:03;;;;;;;0.00;0.00;;;;;;;;;;5092357;28;20043;-80
2023/07/29 13:00:29;;;;;;;0.00;0.00;;;;;;;;;;5095862;28;20051;-80
2023/07/29 13:02:55;;;;;;;0.00;0.00;;;;;;;;;;5094507;28;20407;-80
2023/07/29 13:05:21;;;;;;;0.00;0.00;;;;;;;;;;5095827;28;20040;-78
2023/07/29 13:07:47;;;;;;;0.00;0.00;;;;;;;;;;5094377;28;20051;-78
2023/07/29 13:10:13;;;;;;;0.00;0.00;;;;;;;;;;5094381;28;20039;-78
2023/07/29 13:12:39;;;;;;;0.00;0.00;;;;;;;;;;5094055;28;20052;-79
2023/07/29 13:15:06;;;;;;;0.00;0.00;;;;;;;;;;5094388;28;20074;-82
2023/07/29 13:17:32;;;;;;;0.00;0.00;;;;;;;;;;5094303;28;20112;-82
2023/07/29 13:19:58;;;;;;;0.00;0.00;;;;;;;;;;5094542;28;20044;-78
2023/07/29 13:22:24;;;;;;;0.00;0.00;;;;;;;;;;5095589;28;20471;-79
2023/07/29 13:24:50;;;;;;;0.00;0.00;;;;;;;;;;5095470;28;20044;-78
2023/07/29 13:27:16;;;;;;;0.00;0.00;;;;;;;;;;5095275;28;20050;-79
2023/07/29 13:29:46;;;;;;;0.00;0.00;;;;;;;;;;5095287;28;20039;-78
2023/07/29 13:32:12;;;;;;;0.00;0.00;;;;;;;;;;5076939;28;20048;-78
2023/07/29 13:34:40;;;;;;;0.00;0.00;;;;;;;;;;5095205;28;20101;-79
2023/07/29 13:37:06;;;;;;;0.00;0.00;;;;;;;;;;5093958;28;20044;-79
2023/07/29 13:39:32;;;;;;;0.00;0.00;;;;;;;;;;5094561;28;20478;-78
2023/07/29 13:41:58;;;;;;;0.00;0.00;;;;;;;;;;5095688;28;20040;-78
2023/07/29 13:44:24;;;;;;;0.00;0.00;;;;;;;;;;5077423;28;20105;-78
2023/07/29 13:46:50;;;;;;;0.00;0.00;;;;;;;;;;5094464;28;20032;-79
2023/07/29 13:49:16;;;;;;;0.00;0.00;;;;;;;;;;5094697;28;20044;-78
2023/07/29 13:51:42;;;;;;;0.00;0.00;;;;;;;;;;5095041;28;20115;-78
2023/07/29 13:54:08;;;;;;;0.00;0.00;;;;;;;;;;5094840;28;20115;-78
2023/07/29 13:56:34;;;;;;;0.00;0.00;;;;;;;;;;5095059;28;20078;-78
2023/07/29 13:59:00;;;;;;;0.00;0.00;;;;;;;;;;5094720;28;20072;-78
2023/07/29 14:01:26;;;;;;;0.00;0.00;;;;;;;;;;5093305;28;20462;-78
2023/07/29 14:03:53;;;;;;;0.00;0.00;;;;;;;;;;5076327;28;20040;-78
2023/07/29 14:06:19;;;;;;;0.00;0.00;;;;;;;;;;5094849;28;20043;-78
2023/07/29 14:08:45;;;;;;;0.00;0.00;;;;;;;;;;5094246;28;20032;-79
2023/07/29 14:11:11;;;;;;;0.20;0.10;;;;;;;;;;5094248;28;20489;-78
2023/07/29 14:13:37;;;;;;;0.00;0.00;;;;;;;;;;5093012;28;20082;-78
2023/07/29 14:16:03;;;;;;;0.00;0.00;;;;;;;;;;5094408;28;20068;-78
2023/07/29 14:18:29;;;;;;;0.00;0.00;;;;;;;;;;5092691;28;20040;-78
2023/07/29 14:20:55;;;;;;;0.00;0.00;;;;;;;;;;5092787;28;20092;-78
2023/07/29 14:23:21;;;;;;;0.00;0.00;;;;;;;;;;5093925;28;20406;-78
2023/07/29 14:25:47;;;;;;;0.00;0.00;;;;;;;;;;5093194;28;20044;-78
2023/07/29 14:28:13;;;;;;;0.00;0.00;;;;;;;;;;5094154;28;20115;-78
2023/07/29 14:30:40;;;;;;;0.00;0.00;;;;;;;;;;5092560;28;20040;-79
2023/07/29 14:33:07;;;;;;;0.00;0.00;;;;;;;;;;5075421;28;20051;-77
2023/07/29 14:35:34;;;;;;;0.00;0.00;;;;;;;;;;5092794;28;20421;-78
2023/07/29 14:38:00;;;;;;;0.00;0.00;;;;;;;;;;5093745;28;20463;-78
2023/07/29 14:40:27;;;;;;;0.00;0.00;;;;;;;;;;5093877;28;20046;-77
2023/07/29 14:42:53;;;;;;;0.00;0.00;;;;;;;;;;5092165;28;20568;-79
2023/07/29 14:45:19;;;;;;;0.00;0.00;;;;;;;;;;5075528;28;20044;-77
2023/07/29 14:47:44;;;;;;;0.00;0.00;;;;;;;;;;5093885;28;20047;-77
2023/07/29 14:50:10;;;;;;;0.00;0.00;;;;;;;;;;5093353;28;20040;-77
2023/07/29 14:52:36;;;;;;;0.00;0.00;;;;;;;;;;5092319;28;20066;-77
2023/07/29 14:55:03;;;;;;;0.00;0.00;;;;;;;;;;5092239;28;20055;-77
2023/07/29 14:57:28;;;;;;;0.00;0.00;;;;;;;;;;5092320;28;20078;-77
2023/07/29 14:59:54;;;;;;;0.00;0.00;;;;;;;;;;5092212;28;20084;-77
2023/07/29 15:02:22;;;;;;;0.00;0.00;;;;;;;;;;5092109;28;20475;-77
2023/07/29 15:04:48;;;;;;;0.00;0.00;;;;;;;;;;5075029;28;20055;-77
2023/07/29 15:07:14;;;;;;;0.00;0.00;;;;;;;;;;5093556;28;20043;-77
2023/07/29 15:09:40;;;;;;;0.00;0.00;;;;;;;;;;5091737;28;20147;-77
2023/07/29 15:12:06;;;;;;;0.00;0.00;;;;;;;;;;5091720;28;20048;-77
2023/07/29 15:14:32;;;;;;;0.00;0.00;;;;;;;;;;5092955;28;20177;-78
2023/07/29 15:16:58;;;;;;;0.00;0.00;;;;;;;;;;5093880;28;20036;-77
2023/07/29 15:19:24;;;;;;;0.00;0.00;;;;;;;;;;5093106;28;20578;-77
2023/07/29 15:21:50;;;;;;;0.00;0.00;;;;;;;;;;5092747;28;20044;-77
2023/07/29 15:24:16;;;;;;;0.00;0.00;;;;;;;;;;5093062;28;20115;-77
2023/07/29 15:26:42;;;;;;;0.00;0.00;;;;;;;;;;5091840;28;20123;-77
2023/07/29 15:29:08;;;;;;;0.00;0.00;;;;;;;;;;5092832;28;20667;-77
2023/07/29 15:31:35;;;;;;;0.00;0.00;;;;;;;;;;5091772;28;20040;-77
2023/07/29 15:34:01;;;;;;;0.00;0.00;;;;;;;;;;5091647;28;20368;-77
2023/07/29 15:36:27;;;;;;;0.00;0.00;;;;;;;;;;5091773;28;20036;-77
2023/07/29 15:38:53;;;;;;;0.00;0.00;;;;;;;;;;5091637;28;20044;-77
2023/07/29 15:41:19;;;;;;;0.00;0.00;;;;;;;;;;5092602;28;20040;-77
2023/07/29 15:43:45;;;;;;;0.00;0.00;;;;;;;;;;5091115;28;20452;-77
2023/07/29 15:46:11;;;;;;;0.00;0.00;;;;;;;;;;5092874;28;20051;-76
2023/07/29 15:48:37;;;;;;;0.00;0.00;;;;;;;;;;5091110;28;20514;-76
2023/07/29 15:51:03;;;;;;;0.95;0.80;;;;;;;;;;5091130;28;20040;-77
2023/07/29 15:53:29;;;;;;;0.00;0.00;;;;;;;;;;5090948;28;20075;-77
2023/07/29 15:55:55;;;;;;;0.00;0.00;;;;;;;;;;5091312;28;20047;-77
2023/07/29 15:58:21;;;;;;;0.00;0.00;;;;;;;;;;5092594;28;20028;-77
2023/07/29 16:00:47;;;;;;;0.00;0.00;;;;;;;;;;5092489;28;20067;-77
2023/07/29 16:03:13;;;;;;;0.00;0.00;;;;;;;;;;5091644;28;20051;-77
2023/07/29 16:05:39;;;;;;;0.00;0.00;;;;;;;;;;5092461;28;20035;-77